Time;durP1;ratioP1;P1;durP2;ratioP2;P2;SDS_P1;SDS_P2;PMS_P1;PMS_P2;Temp;Humidity;BMP_temperature;BMP_pressure;BME280_temperature;BME280_humidity;BME280_pressure;Samples;Min_cycle;Max_cycle;Signal;HPM_P1;HPM_P2
2022/06/03 00:02:14;;;;;;;5.55;4.25;;;10.20;99.90;;;;;;5156303;27;20047;-81
2022/06/03 00:05:32;;;;;;;6.63;4.38;;;10.10;99.90;;;;;;5170603;27;20117;-80
2022/06/03 00:08:38;;;;;;;5.28;4.07;;;10.10;99.90;;;;;;5164131;27;20057;-80
2022/06/03 00:11:29;;;;;;;12.48;5.20;;;10.10;99.90;;;;;;5128621;27;20051;-81
2022/06/03 00:14:26;;;;;;;;;;;10.00;99.90;;;;;;5140379;27;20050;-80
2022/06/03 00:17:01;;;;;;;6.45;3.92;;;10.00;99.90;;;;;;5138562;27;19922;-80
2022/06/03 00:19:41;;;;;;;7.10;4.15;;;9.90;99.90;;;;;;5140126;27;20039;-81
2022/06/03 00:22:23;;;;;;;9.05;4.35;;;9.90;99.90;;;;;;5158049;27;20082;-81
2022/06/03 00:25:26;;;;;;;10.05;5.13;;;9.90;99.90;;;;;;5156262;27;20042;-81
2022/06/03 00:28:18;;;;;;;6.18;4.47;;;9.90;99.90;;;;;;5157585;27;20050;-83
2022/06/03 00:30:59;;;;;;;10.10;5.18;;;9.90;99.90;;;;;;5157477;27;20054;-83
2022/06/03 00:33:56;;;;;;;6.32;4.50;;;9.90;99.90;;;;;;5138878;27;20051;-82
2022/06/03 00:36:34;;;;;;;9.13;5.80;;;9.90;99.90;;;;;;5157778;27;20055;-82
2022/06/03 00:39:22;;;;;;;7.90;5.28;;;9.80;99.90;;;;;;5132132;27;20035;-82
2022/06/03 00:42:03;;;;;;;8.77;5.47;;;9.80;99.90;;;;;;5118499;27;20051;-82
2022/06/03 00:45:00;;;;;;;7.88;5.55;;;9.80;99.90;;;;;;5136410;27;20055;-82
2022/06/03 00:47:57;;;;;;;10.00;5.15;;;9.70;99.90;;;;;;5117809;27;20047;-83
2022/06/03 00:50:59;;;;;;;7.05;4.70;;;9.70;99.90;;;;;;5136510;27;20465;-82
2022/06/03 00:53:50;;;;;;;8.68;5.80;;;9.60;99.90;;;;;;5130408;27;20047;-82
2022/06/03 00:56:33;;;;;;;9.35;5.50;;;9.70;99.90;;;;;;5118143;27;20494;-83
2022/06/03 00:59:13;;;;;;;7.18;4.38;;;9.60;99.90;;;;;;5117897;27;20070;-83
2022/06/03 01:01:50;;;;;;;7.85;5.35;;;9.60;99.90;;;;;;5116952;27;20062;-82
2022/06/03 01:04:36;;;;;;;8.95;5.70;;;9.80;99.90;;;;;;5117478;27;20059;-83
2022/06/03 01:07:13;;;;;;;7.75;5.40;;;9.50;99.90;;;;;;5116940;27;20047;-81
2022/06/03 01:10:03;;;;;;;7.32;5.07;;;9.50;99.90;;;;;;5128470;27;20054;-82
2022/06/03 01:12:54;;;;;;;8.85;5.43;;;9.50;99.90;;;;;;5139251;27;20050;-82
2022/06/03 01:15:28;;;;;;;;;;;9.40;99.90;;;;;;5138397;27;20038;-82
2022/06/03 01:18:08;;;;;;;9.43;5.00;;;9.40;99.90;;;;;;5157022;27;19926;-81
2022/06/03 01:20:40;;;;;;;7.90;5.57;;;9.60;99.90;;;;;;5176976;27;20046;-82
2022/06/03 01:23:52;;;;;;;8.73;5.78;;;9.30;99.90;;;;;;5165428;27;20500;-81
2022/06/03 01:26:36;;;;;;;7.75;5.82;;;9.30;99.90;;;;;;5121382;27;20119;-82
2022/06/03 01:29:23;;;;;;;9.10;5.68;;;9.40;99.90;;;;;;5135534;27;20047;-82
2022/06/03 01:32:25;;;;;;;10.23;5.60;;;9.30;99.90;;;;;;5136979;27;20055;-83
2022/06/03 01:35:12;;;;;;;9.35;5.97;;;9.30;99.90;;;;;;5154861;27;20417;-83
2022/06/03 01:37:48;;;;;;;10.07;5.80;;;9.30;99.90;;;;;;5152263;27;20047;-83
2022/06/03 01:40:34;;;;;;;8.25;5.65;;;9.50;99.90;;;;;;5139892;27;20050;-83
2022/06/03 01:43:35;;;;;;;9.25;5.93;;;9.30;99.90;;;;;;5135513;27;20058;-81
2022/06/03 01:46:25;;;;;;;9.30;5.90;;;9.30;99.90;;;;;;5117320;27;20039;-82
2022/06/03 01:49:19;;;;;;;9.05;6.30;;;9.30;99.90;;;;;;5116104;27;20112;-82
2022/06/03 01:52:08;;;;;;;9.82;6.40;;;9.30;99.90;;;;;;5136896;27;20043;-83
2022/06/03 01:55:05;;;;;;;8.13;5.72;;;9.30;99.90;;;;;;5117075;27;20051;-82
2022/06/03 01:58:14;;;;;;;10.98;6.13;;;9.30;99.90;;;;;;5134635;27;20058;-83
2022/06/03 02:00:45;;;;;;;11.43;7.40;;;9.30;99.90;;;;;;5134708;27;20047;-83
2022/06/03 02:03:44;;;;;;;11.88;6.10;;;9.90;99.90;;;;;;5115647;27;20058;-84
2022/06/03 02:06:37;;;;;;;11.00;6.40;;;9.20;99.90;;;;;;5116528;27;20058;-83
2022/06/03 02:09:26;;;;;;;10.45;6.30;;;9.20;99.90;;;;;;5134607;27;20035;-82
2022/06/03 02:12:03;;;;;;;11.63;5.90;;;9.20;99.90;;;;;;5134047;27;20467;-84
2022/06/03 02:15:00;;;;;;;7.45;5.60;;;9.20;99.90;;;;;;5116386;27;20055;-82
2022/06/03 02:17:53;;;;;;;10.82;5.72;;;9.20;99.90;;;;;;5098009;27;20406;-82
2022/06/03 02:21:06;;;;;;;11.95;6.40;;;9.50;99.90;;;;;;5131373;27;20056;-82
2022/06/03 02:24:15;;;;;;;9.75;5.93;;;9.20;99.90;;;;;;5134781;27;20639;-81
2022/06/03 02:27:18;;;;;;;10.23;4.97;;;9.20;99.90;;;;;;5117082;27;20047;-82
2022/06/03 02:30:27;;;;;;;8.02;5.88;;;9.30;99.90;;;;;;5116059;27;20043;-82
2022/06/03 02:33:42;;;;;;;8.93;5.60;;;9.20;99.90;;;;;;5115740;27;20047;-82
2022/06/03 02:36:44;;;;;;;10.75;5.00;;;9.20;99.90;;;;;;5052545;28;20075;-83
2022/06/03 02:39:37;;;;;;;9.15;5.22;;;9.20;99.90;;;;;;5034293;28;20544;-81
2022/06/03 02:42:22;;;;;;;8.35;5.47;;;9.20;99.90;;;;;;5130708;28;20051;-83
2022/06/03 02:45:22;;;;;;;8.68;5.68;;;9.20;99.90;;;;;;5134325;28;20059;-83
2022/06/03 02:48:12;;;;;;;9.60;5.35;;;9.20;99.90;;;;;;5096832;28;20051;-82
2022/06/03 02:51:27;;;;;;;7.05;5.35;;;9.10;99.90;;;;;;5134585;28;20043;-82
2022/06/03 02:54:35;;;;;;;9.00;5.15;;;9.20;99.90;;;;;;5030800;28;20204;-83
2022/06/03 02:57:36;;;;;;;9.60;5.45;;;9.10;99.90;;;;;;5134774;27;20380;-83
2022/06/03 03:00:26;;;;;;;;;;;9.20;99.90;;;;;;5150431;27;20043;-83
2022/06/03 03:03:09;;;;;;;10.50;6.10;;;9.20;99.90;;;;;;5100396;28;19919;-82
2022/06/03 03:06:01;;;;;;;7.57;5.30;;;9.40;99.90;;;;;;5133402;28;20437;-83
2022/06/03 03:08:54;;;;;;;9.95;5.75;;;9.30;99.90;;;;;;5120708;27;20050;-83
2022/06/03 03:11:48;;;;;;;10.18;5.78;;;9.30;99.90;;;;;;5136125;27;20062;-83
2022/06/03 03:14:44;;;;;;;12.52;5.85;;;9.30;99.90;;;;;;5136125;27;20046;-84
2022/06/03 03:17:56;;;;;;;10.75;5.65;;;9.30;99.90;;;;;;5154822;27;20051;-83
2022/06/03 03:20:54;;;;;;;10.10;5.63;;;9.30;99.90;;;;;;5105294;27;20512;-81
2022/06/03 03:23:55;;;;;;;7.93;5.85;;;9.30;99.90;;;;;;5136427;27;20053;-83
2022/06/03 03:26:33;;;;;;;13.45;6.38;;;9.30;99.90;;;;;;5154887;27;20054;-84
2022/06/03 03:29:14;;;;;;;9.25;6.43;;;9.40;99.90;;;;;;5136314;27;20047;-84
2022/06/03 03:32:04;;;;;;;10.57;6.65;;;9.30;99.90;;;;;;5156892;27;20054;-84
2022/06/03 03:35:04;;;;;;;11.23;6.20;;;9.70;99.90;;;;;;5158176;27;20558;-83
2022/06/03 03:37:56;;;;;;;10.00;6.10;;;9.40;99.90;;;;;;5158839;27;20047;-83
2022/06/03 03:40:46;;;;;;;9.25;6.35;;;9.50;99.90;;;;;;5158585;27;20272;-82
2022/06/03 03:43:39;;;;;;;11.02;7.07;;;9.40;99.90;;;;;;5141172;27;20043;-81
2022/06/03 03:46:46;;;;;;;12.50;7.28;;;9.50;99.90;;;;;;5160730;27;20048;-81
2022/06/03 03:49:47;;;;;;;13.30;7.22;;;9.60;99.90;;;;;;5139663;27;20072;-82
2022/06/03 03:52:37;;;;;;;10.73;7.43;;;9.70;99.90;;;;;;5134856;27;20054;-83
2022/06/03 03:55:38;;;;;;;11.23;7.67;;;9.80;99.90;;;;;;5119243;27;20058;-83
2022/06/03 03:58:35;;;;;;;10.10;8.07;;;9.80;99.90;;;;;;5119245;27;20063;-84
2022/06/03 04:02:06;;;;;;;11.27;7.82;;;9.90;99.90;;;;;;5136933;27;20051;-83
2022/06/03 04:05:10;;;;;;;11.00;7.95;;;10.00;99.90;;;;;;5137006;27;20112;-82
2022/06/03 04:08:13;;;;;;;12.13;8.05;;;10.10;99.90;;;;;;5138677;27;20047;-82
2022/06/03 04:11:04;;;;;;;11.88;7.47;;;10.20;99.90;;;;;;5141690;27;20050;-82
2022/06/03 04:14:11;;;;;;;10.35;7.82;;;10.30;99.90;;;;;;5146384;27;20043;-82
2022/06/03 04:17:09;;;;;;;10.70;7.82;;;10.40;99.90;;;;;;5148524;27;20050;-83
2022/06/03 04:20:24;;;;;;;10.90;8.35;;;10.60;99.90;;;;;;5130505;27;20120;-80
2022/06/03 04:23:22;;;;;;;9.32;7.82;;;10.70;99.90;;;;;;5152088;27;20065;-82
2022/06/03 04:26:35;;;;;;;11.77;7.32;;;10.80;99.90;;;;;;5118985;27;20070;-83
2022/06/03 04:32:40;;;;;;;10.02;7.57;;;10.90;99.90;;;;;;5127512;27;20038;-82
2022/06/03 04:35:37;;;;;;;10.73;7.32;;;10.90;99.90;;;;;;5133763;27;20042;-82
2022/06/03 04:38:44;;;;;;;8.70;7.05;;;10.90;99.90;;;;;;5131979;27;20051;-82
2022/06/03 04:41:58;;;;;;;11.40;8.07;;;11.20;99.90;;;;;;5135794;27;20051;-81
2022/06/03 04:45:20;;;;;;;12.48;7.90;;;11.20;99.90;;;;;;5086019;27;20046;-80
2022/06/03 04:48:21;;;;;;;10.38;7.57;;;11.30;99.90;;;;;;5086892;28;20080;-84
2022/06/03 04:51:33;;;;;;;12.00;7.57;;;11.30;99.90;;;;;;5132878;27;20043;-85
2022/06/03 04:54:43;;;;;;;15.63;8.27;;;11.40;99.90;;;;;;5150301;27;20051;-85
2022/06/03 04:58:02;;;;;;;15.27;8.68;;;11.50;99.90;;;;;;5131342;27;20051;-83
2022/06/03 05:00:59;;;;;;;11.48;7.50;;;11.90;99.90;;;;;;5133234;27;20620;-89
2022/06/03 05:04:19;;;;;;;9.70;6.72;;;12.00;99.90;;;;;;5146119;27;20054;-79
2022/06/03 05:07:26;;;;;;;9.25;6.97;;;12.20;99.90;;;;;;5049732;27;20057;-81
2022/06/03 05:10:53;;;;;;;9.13;6.15;;;12.30;99.90;;;;;;5132008;27;20047;-81
2022/06/03 05:14:09;;;;;;;10.63;6.80;;;12.70;99.90;;;;;;5148752;27;20049;-83
2022/06/03 05:17:09;;;;;;;8.73;5.82;;;12.70;99.90;;;;;;5126683;27;20499;-81
2022/06/03 05:20:13;;;;;;;8.85;6.15;;;12.90;99.90;;;;;;5090720;27;20050;-83
2022/06/03 05:23:06;;;;;;;8.23;5.60;;;13.00;99.90;;;;;;5150642;27;20521;-80
2022/06/03 05:25:58;;;;;;;11.18;6.50;;;13.30;99.90;;;;;;5126884;27;20053;-83
2022/06/03 05:28:56;;;;;;;7.45;5.18;;;13.50;99.90;;;;;;5129540;27;20533;-84
2022/06/03 05:32:10;;;;;;;8.63;5.38;;;13.60;99.90;;;;;;5124856;27;20053;-83
2022/06/03 05:35:05;;;;;;;8.88;5.28;;;13.70;99.90;;;;;;5047379;28;20045;-84
2022/06/03 05:38:06;;;;;;;8.95;5.45;;;14.00;99.90;;;;;;5059371;28;20044;-82
2022/06/03 05:40:40;;;;;;;6.60;4.68;;;14.20;99.90;;;;;;5125381;27;20043;-79
2022/06/03 05:43:39;;;;;;;8.00;4.80;;;14.30;99.90;;;;;;5124036;27;20223;-80
2022/06/03 05:46:14;;;;;;;7.15;4.90;;;14.60;99.90;;;;;;5122050;27;20043;-83
2022/06/03 05:49:11;;;;;;;6.15;4.28;;;14.70;99.90;;;;;;5156374;27;20051;-85
2022/06/03 05:52:13;;;;;;;7.43;3.70;;;14.70;99.90;;;;;;5158187;27;20035;-83
2022/06/03 05:54:58;;;;;;;8.07;3.92;;;14.80;99.90;;;;;;5133591;27;20542;-84
2022/06/03 05:57:40;;;;;;;9.65;3.95;;;15.00;99.90;;;;;;5119439;27;20066;-82
2022/06/03 06:00:46;;;;;;;6.88;3.80;;;15.20;99.90;;;;;;5124504;27;20567;-81
2022/06/03 06:03:24;;;;;;;7.90;3.75;;;15.30;99.90;;;;;;5148961;27;20141;-79
2022/06/03 06:05:59;;;;;;;6.55;3.42;;;15.50;99.90;;;;;;5146778;27;20057;-81
2022/06/03 06:08:36;;;;;;;7.18;3.92;;;15.60;99.90;;;;;;5149760;27;20056;-79
2022/06/03 06:11:13;;;;;;;6.93;3.60;;;15.80;99.90;;;;;;5133682;27;20038;-81
2022/06/03 06:14:14;;;;;;;5.95;3.13;;;15.90;99.90;;;;;;5128964;27;20379;-81
2022/06/03 06:16:43;;;;;;;6.80;2.83;;;16.00;99.90;;;;;;5127821;27;20057;-80
2022/06/03 06:19:36;;;;;;;6.15;3.13;;;16.10;99.90;;;;;;5131115;27;20054;-82
2022/06/03 06:22:21;;;;;;;4.95;3.30;;;16.10;99.90;;;;;;5130409;27;20125;-81
2022/06/03 06:24:58;;;;;;;3.75;2.75;;;16.30;99.90;;;;;;5128559;27;20466;-81
2022/06/03 06:27:57;;;;;;;6.70;3.22;;;16.50;99.90;;;;;;5136498;27;20405;-81
2022/06/03 06:30:42;;;;;;;4.65;2.47;;;16.50;99.90;;;;;;5115381;27;20356;-80
2022/06/03 06:34:02;;;;;;;7.03;2.30;;;16.70;99.90;;;;;;5140849;27;20122;-85
2022/06/03 06:37:06;;;;;;;6.40;2.63;;;16.80;99.90;;;;;;5133858;27;20047;-83
2022/06/03 06:39:51;;;;;;;4.03;2.65;;;17.00;99.90;;;;;;5135561;27;20042;-82
2022/06/03 06:42:29;;;;;;;5.07;2.10;;;17.20;99.90;;;;;;5147163;27;20082;-84
2022/06/03 06:45:14;;;;;;;6.38;2.47;;;17.40;99.90;;;;;;5132149;28;20051;-86
2022/06/03 06:47:48;;;;;;;4.07;2.22;;;17.50;99.90;;;;;;5119596;28;20050;-86
2022/06/03 06:50:20;;;;;;;6.25;2.60;;;17.70;99.90;;;;;;5116161;28;20104;-84
2022/06/03 06:53:07;;;;;;;4.28;2.08;;;18.00;99.90;;;;;;5140880;27;20112;-83
2022/06/03 06:55:56;;;;;;;7.07;2.30;;;18.40;99.90;;;;;;5156176;27;20042;-82
2022/06/03 06:58:42;;;;;;;4.40;2.05;;;18.80;99.90;;;;;;5145976;27;20043;-82
2022/06/03 07:01:10;;;;;;;4.63;1.90;;;19.20;99.90;;;;;;5131802;27;20085;-81
2022/06/03 07:03:59;;;;;;;5.00;1.65;;;19.50;99.90;;;;;;5143470;27;20058;-82
2022/06/03 07:06:36;;;;;;;3.40;1.80;;;19.80;98.10;;;;;;5149826;27;20039;-82
2022/06/03 07:09:25;;;;;;;3.00;1.80;;;19.80;97.50;;;;;;5144489;27;20086;-79
2022/06/03 07:11:58;;;;;;;6.47;1.60;;;20.00;95.00;;;;;;5138967;27;20043;-80
2022/06/03 07:14:30;;;;;;;3.00;1.60;;;19.40;94.50;;;;;;5153497;27;20395;-81
2022/06/03 07:19:57;;;;;;;3.97;1.50;;;20.50;93.70;;;;;;5128836;27;20046;-80
2022/06/03 07:22:30;;;;;;;5.93;1.83;;;20.80;94.10;;;;;;5119514;27;20085;-86
2022/06/03 07:25:08;;;;;;;5.07;1.80;;;21.10;93.60;;;;;;5149789;27;20046;-79
2022/06/03 07:27:49;;;;;;;3.22;1.30;;;21.30;91.50;;;;;;5122936;27;20047;-81
2022/06/03 07:30:24;;;;;;;2.97;1.38;;;21.60;89.80;;;;;;5145231;27;20046;-79
2022/06/03 07:32:58;;;;;;;3.55;1.40;;;21.70;88.60;;;;;;5158314;27;20047;-87
2022/06/03 07:35:31;;;;;;;2.38;1.35;;;22.10;90.20;;;;;;5138142;27;20051;-83
2022/06/03 07:38:05;;;;;;;4.35;1.30;;;22.50;90.20;;;;;;5137917;27;20054;-82
2022/06/03 07:40:39;;;;;;;4.25;1.10;;;22.70;85.50;;;;;;5150078;27;20046;-82
2022/06/03 07:43:11;;;;;;;3.95;1.27;;;22.80;85.60;;;;;;5135527;27;20138;-82
2022/06/03 07:45:44;;;;;;;2.33;1.10;;;23.00;84.00;;;;;;5118428;27;20051;-82
2022/06/03 07:48:16;;;;;;;2.20;1.30;;;23.20;83.70;;;;;;5119940;27;20055;-81
2022/06/03 07:50:49;;;;;;;2.47;1.08;;;23.40;84.40;;;;;;5137631;27;20043;-82
2022/06/03 07:53:21;;;;;;;3.92;1.35;;;23.40;80.20;;;;;;5129591;27;20070;-80
2022/06/03 07:55:54;;;;;;;2.08;1.10;;;23.30;76.50;;;;;;5136964;27;20546;-78
2022/06/03 07:58:23;;;;;;;3.42;1.08;;;23.50;79.00;;;;;;5119984;27;20043;-80
2022/06/03 08:00:52;;;;;;;1.98;1.05;;;23.30;77.20;;;;;;5157485;27;20047;-80
2022/06/03 08:03:21;;;;;;;3.05;1.25;;;23.40;75.70;;;;;;5133204;27;20045;-80
2022/06/03 08:05:50;;;;;;;2.00;0.90;;;23.60;77.20;;;;;;5136554;27;20520;-80
2022/06/03 08:11:12;;;;;;;2.65;1.00;;;23.90;73.70;;;;;;5149561;27;20046;-80
2022/06/03 08:13:48;;;;;;;2.17;0.95;;;23.90;72.40;;;;;;5157161;27;20062;-80
2022/06/03 08:16:26;;;;;;;2.65;1.00;;;24.10;73.80;;;;;;5138170;27;20065;-82
2022/06/03 08:18:58;;;;;;;2.60;0.90;;;24.40;70.30;;;;;;5122458;27;20491;-81
2022/06/03 08:21:29;;;;;;;2.25;0.90;;;24.60;70.90;;;;;;5119015;27;20051;-81
2022/06/03 08:23:57;;;;;;;2.13;0.90;;;24.80;71.00;;;;;;5140219;27;20058;-80
2022/06/03 08:26:27;;;;;;;2.45;0.82;;;24.90;70.60;;;;;;5137568;27;20510;-80
2022/06/03 08:29:05;;;;;;;4.57;1.40;;;25.00;69.70;;;;;;5137118;27;20060;-80
2022/06/03 08:31:34;;;;;;;1.85;1.02;;;25.00;66.50;;;;;;5117376;27;20043;-82
2022/06/03 08:34:02;;;;;;;3.20;0.97;;;25.20;67.00;;;;;;5149550;27;20050;-80
2022/06/03 08:36:35;;;;;;;2.33;1.00;;;25.10;67.00;;;;;;5123519;27;20050;-81
2022/06/03 08:39:05;;;;;;;2.20;0.93;;;25.40;65.60;;;;;;5156598;27;20046;-81
2022/06/03 08:41:47;;;;;;;3.72;1.58;;;25.70;68.00;;;;;;5156752;27;20043;-81
2022/06/03 08:44:28;;;;;;;2.58;1.05;;;25.80;66.60;;;;;;5138288;27;20054;-82
2022/06/03 08:47:01;;;;;;;3.78;1.10;;;26.10;68.30;;;;;;5138943;27;20051;-81
2022/06/03 08:49:30;;;;;;;4.30;1.48;;;26.20;68.20;;;;;;5137994;27;20062;-82
2022/06/03 08:52:02;;;;;;;2.63;1.05;;;26.40;67.50;;;;;;5138166;27;20078;-82
2022/06/03 08:54:36;;;;;;;2.67;1.10;;;26.40;66.20;;;;;;5147270;27;20126;-82
2022/06/03 08:57:09;;;;;;;2.33;1.00;;;26.30;65.20;;;;;;5136118;27;20053;-80
2022/06/03 08:59:40;;;;;;;2.70;1.10;;;26.50;66.60;;;;;;5137857;27;20074;-84
2022/06/03 09:02:13;;;;;;;2.55;1.13;;;26.60;66.30;;;;;;5151369;27;20099;-84
2022/06/03 09:04:47;;;;;;;2.97;1.00;;;26.80;65.70;;;;;;5132929;27;20070;-81
2022/06/03 09:07:19;;;;;;;1.63;0.70;;;26.60;64.80;;;;;;5134028;27;20130;-81
2022/06/03 09:09:52;;;;;;;1.90;1.10;;;26.80;65.60;;;;;;5141390;27;20051;-81
2022/06/03 09:12:36;;;;;;;2.83;0.98;;;27.00;64.90;;;;;;5136427;27;20092;-82
2022/06/03 09:15:08;;;;;;;1.70;0.98;;;27.10;65.40;;;;;;5137166;27;20059;-82
2022/06/03 09:17:40;;;;;;;3.22;1.20;;;27.40;66.10;;;;;;5118572;27;20058;-82
2022/06/03 09:20:13;;;;;;;2.38;1.20;;;27.40;64.60;;;;;;5116078;27;20138;-83
2022/06/03 09:22:40;;;;;;;4.53;0.90;;;27.30;62.60;;;;;;5124990;27;20486;-88
2022/06/03 09:25:12;;;;;;;2.88;0.85;;;27.20;64.10;;;;;;5153733;27;20054;-91
2022/06/03 09:27:41;;;;;;;2.72;0.90;;;27.30;64.70;;;;;;5142270;27;20050;-88
2022/06/03 09:30:37;;;;;;;2.00;0.95;;;27.40;65.00;;;;;;5157121;27;20058;-85
2022/06/03 09:33:28;;;;;;;2.55;0.77;;;27.40;64.00;;;;;;5151544;27;20051;-84
2022/06/03 09:36:26;;;;;;;3.25;1.10;;;27.50;63.50;;;;;;5153883;27;20051;-87
2022/06/03 09:38:59;;;;;;;2.53;1.10;;;27.80;62.90;;;;;;5037418;28;20549;-85
2022/06/03 09:41:41;;;;;;;4.88;1.58;;;27.80;63.30;;;;;;5064901;28;20037;-84
2022/06/03 09:44:30;;;;;;;2.55;1.20;;;27.80;63.30;;;;;;5036547;28;20076;-82
2022/06/03 09:47:15;;;;;;;5.20;1.70;;;27.90;61.90;;;;;;5025880;28;20136;-82
2022/06/03 09:50:38;;;;;;;2.38;1.27;;;27.90;63.70;;;;;;5052956;28;20049;-82
2022/06/03 09:53:08;;;;;;;3.50;1.30;;;28.00;62.40;;;;;;5039998;28;20052;-83
2022/06/03 09:55:43;;;;;;;2.53;1.20;;;28.40;62.60;;;;;;5071415;28;20052;-82
2022/06/03 09:58:16;;;;;;;3.92;1.52;;;28.00;61.40;;;;;;5044234;28;20170;-82
2022/06/03 10:00:47;;;;;;;2.53;1.15;;;28.10;62.60;;;;;;5101392;27;20047;-81
2022/06/03 10:03:16;;;;;;;1.95;1.20;;;28.30;62.80;;;;;;5121574;27;20081;-81
2022/06/03 10:05:54;;;;;;;2.90;1.10;;;28.20;61.50;;;;;;5155954;27;20047;-82
2022/06/03 10:14:28;;;;;;;3.45;1.50;;;28.40;62.50;;;;;;5137232;27;20095;-82
2022/06/03 10:16:55;;;;;;;3.70;1.30;;;28.60;61.80;;;;;;5155216;27;20513;-80
2022/06/03 10:19:22;;;;;;;3.15;1.23;;;28.90;62.00;;;;;;5139055;27;20051;-79
2022/06/03 10:21:56;;;;;;;2.20;1.20;;;29.00;61.00;;;;;;5134811;27;20043;-84
2022/06/03 10:28:26;;;;;;;2.05;1.38;;;29.00;57.70;;;;;;5066450;27;20457;-85
2022/06/03 10:31:08;;;;;;;2.55;1.30;;;28.70;59.40;;;;;;5125765;27;20103;-83
2022/06/03 10:33:54;;;;;;;2.65;1.17;;;28.90;60.40;;;;;;5120952;27;20134;-83
2022/06/03 10:36:30;;;;;;;5.07;1.50;;;28.90;60.20;;;;;;5104763;27;20518;-83
2022/06/03 10:39:03;;;;;;;3.42;1.50;;;29.20;59.50;;;;;;5116705;27;20081;-83
2022/06/03 10:41:46;;;;;;;5.90;1.60;;;29.10;59.30;;;;;;5114657;27;20047;-83
2022/06/03 11:02:15;;;;;;;4.32;1.60;;;29.80;57.80;;;;;;4970413;28;20113;-83
2022/06/03 11:04:43;;;;;;;2.85;1.20;;;29.90;59.40;;;;;;4994617;28;20048;-88
2022/06/03 11:07:26;;;;;;;3.30;1.60;;;29.70;59.70;;;;;;5053625;28;20051;-84
2022/06/03 11:09:58;;;;;;;4.68;1.58;;;29.40;57.90;;;;;;5070636;28;20056;-82
2022/06/03 11:12:27;;;;;;;2.78;1.33;;;29.10;59.00;;;;;;5060422;28;20615;-81
2022/06/03 11:14:58;;;;;;;3.38;1.17;;;29.60;59.80;;;;;;5072880;28;20119;-82
2022/06/03 11:17:35;;;;;;;2.78;1.40;;;29.30;57.50;;;;;;5115563;28;20053;-83
2022/06/03 11:20:03;;;;;;;2.85;1.40;;;29.70;58.50;;;;;;5115855;28;20057;-84
2022/06/03 11:22:33;;;;;;;2.35;1.05;;;29.80;59.00;;;;;;5118311;28;20043;-83
2022/06/03 11:25:08;;;;;;;2.92;1.70;;;30.00;57.80;;;;;;5138170;28;20498;-83
2022/06/03 11:27:45;;;;;;;2.38;1.50;;;29.50;56.60;;;;;;5128127;28;20047;-81
2022/06/03 11:30:17;;;;;;;4.82;1.42;;;29.10;56.60;;;;;;5135634;28;20134;-82
2022/06/03 11:32:49;;;;;;;4.32;1.25;;;29.00;57.50;;;;;;5118402;28;20061;-82
2022/06/03 11:35:26;;;;;;;2.30;1.40;;;28.90;57.30;;;;;;5121615;28;20058;-84
2022/06/03 11:38:00;;;;;;;2.15;1.15;;;29.00;56.90;;;;;;5119936;28;20074;-84
2022/06/03 11:40:32;;;;;;;3.30;1.60;;;29.00;58.30;;;;;;5115244;28;20153;-82
2022/06/03 11:43:05;;;;;;;2.85;1.40;;;28.50;58.60;;;;;;5133751;28;20494;-82
2022/06/03 11:45:44;;;;;;;3.05;1.63;;;28.60;57.50;;;;;;5115684;28;20054;-83
2022/06/03 11:48:18;;;;;;;4.22;1.42;;;29.10;57.30;;;;;;5115648;28;20051;-82
2022/06/03 11:53:52;;;;;;;3.83;1.55;;;29.50;58.10;;;;;;5135117;27;20059;-83
2022/06/03 11:56:27;;;;;;;2.25;1.20;;;29.30;57.00;;;;;;5133174;27;20130;-82
2022/06/03 12:15:41;;;;;;;3.75;1.42;;;29.30;58.80;;;;;;5136567;27;20445;-82
2022/06/03 12:18:46;;;;;;;2.70;1.50;;;29.00;58.70;;;;;;5118985;27;20043;-80
2022/06/03 12:21:32;;;;;;;5.75;1.65;;;29.60;58.00;;;;;;5118544;27;20047;-80
2022/06/03 12:24:21;;;;;;;4.35;1.40;;;29.90;57.90;;;;;;5118020;27;20063;-81
2022/06/03 12:26:50;;;;;;;3.38;1.30;;;29.90;57.20;;;;;;5136366;27;20494;-80
2022/06/03 12:29:22;;;;;;;;;;;29.70;58.10;;;;;;5136768;27;20047;-83
2022/06/03 12:31:52;;;;;;;1.90;1.17;;;29.60;58.00;;;;;;5137861;27;19987;-82
2022/06/03 12:34:24;;;;;;;5.30;1.83;;;29.90;58.70;;;;;;5136707;27;20504;-82
2022/06/03 12:37:00;;;;;;;3.75;1.50;;;30.20;58.90;;;;;;5138409;27;20046;-84
2022/06/03 12:39:36;;;;;;;4.22;1.20;;;29.50;58.00;;;;;;5138350;27;20043;-84
2022/06/03 12:42:37;;;;;;;3.05;1.23;;;29.50;58.30;;;;;;5138526;27;20039;-82
2022/06/03 12:45:30;;;;;;;4.63;1.50;;;29.20;57.90;;;;;;5138416;27;20051;-81
2022/06/03 12:47:58;;;;;;;4.60;1.60;;;29.40;57.60;;;;;;5134013;27;20485;-83
2022/06/03 12:50:31;;;;;;;2.50;1.25;;;29.20;58.90;;;;;;5137633;27;20081;-83
2022/06/03 12:53:23;;;;;;;2.70;1.20;;;29.10;58.40;;;;;;5139023;27;20529;-86
2022/06/03 12:56:35;;;;;;;4.43;1.42;;;28.80;60.40;;;;;;5138584;27;20050;-83
2022/06/03 12:59:53;;;;;;;2.33;1.20;;;29.00;60.50;;;;;;5127400;27;20112;-82
2022/06/03 13:02:51;;;;;;;3.92;1.10;;;29.40;59.80;;;;;;5093254;28;20519;-83
2022/06/03 13:05:47;;;;;;;1.90;1.10;;;30.30;58.70;;;;;;5018310;28;20528;-83
2022/06/03 13:14:48;;;;;;;2.75;1.40;;;30.60;59.00;;;;;;5094791;28;20550;-81
2022/06/03 13:18:10;;;;;;;5.20;1.20;;;30.10;57.30;;;;;;5110564;28;20048;-81
2022/06/03 13:21:11;;;;;;;3.35;1.23;;;30.50;58.40;;;;;;5043867;28;20080;-81
2022/06/03 13:24:16;;;;;;;5.10;1.10;;;31.00;58.40;;;;;;5035819;28;20053;-81
2022/06/03 13:26:50;;;;;;;1.85;0.75;;;30.40;57.50;;;;;;5044583;28;20056;-82
2022/06/03 13:30:00;;;;;;;4.15;1.10;;;30.40;58.00;;;;;;5085828;28;20462;-81
2022/06/03 13:32:41;;;;;;;5.47;1.50;;;30.30;57.40;;;;;;5102995;27;20051;-81
2022/06/03 13:35:19;;;;;;;3.30;1.45;;;30.10;57.20;;;;;;5128103;27;20043;-83
2022/06/03 13:38:25;;;;;;;2.40;0.90;;;30.00;58.30;;;;;;5135651;27;20061;-83
2022/06/03 13:44:09;;;;;;;2.95;1.17;;;30.10;57.90;;;;;;5104292;27;20126;-82
2022/06/03 13:46:40;;;;;;;1.40;0.77;;;29.90;58.20;;;;;;5155279;27;20050;-84
2022/06/03 13:49:24;;;;;;;3.35;1.00;;;29.80;57.50;;;;;;5154776;27;20052;-84
2022/06/03 13:52:03;;;;;;;4.47;1.67;;;29.60;57.60;;;;;;5137996;27;20054;-84
2022/06/03 13:54:41;;;;;;;5.65;1.70;;;29.20;58.00;;;;;;5134487;27;20051;-81
2022/06/03 13:57:20;;;;;;;6.05;1.00;;;28.50;58.60;;;;;;5118072;27;20051;-82
2022/06/03 13:59:49;;;;;;;3.15;1.00;;;28.10;59.70;;;;;;5167985;27;20050;-82
2022/06/03 14:02:34;;;;;;;4.53;1.40;;;28.10;59.70;;;;;;5154623;27;20065;-85
2022/06/03 14:05:06;;;;;;;2.08;0.82;;;27.80;59.20;;;;;;5137294;27;20058;-85
2022/06/03 14:07:46;;;;;;;2.80;1.10;;;27.20;59.20;;;;;;5136843;27;20122;-82
2022/06/03 14:10:21;;;;;;;2.88;0.90;;;26.80;59.60;;;;;;5133935;27;20135;-80
2022/06/03 14:13:04;;;;;;;5.18;1.23;;;26.30;60.00;;;;;;5117197;27;20487;-83
2022/06/03 14:15:39;;;;;;;4.60;1.17;;;25.90;60.50;;;;;;5137277;27;20130;-85
2022/06/03 14:18:09;;;;;;;2.33;0.80;;;25.90;60.80;;;;;;5135301;27;20074;-85
2022/06/03 14:20:37;;;;;;;;;;;25.70;61.20;;;;;;5134930;27;20047;-84
2022/06/03 14:23:17;;;;;;;5.65;1.42;;;25.50;61.00;;;;;;5116187;27;19919;-81
2022/06/03 14:25:58;;;;;;;15.23;1.27;;;25.10;60.50;;;;;;5133119;27;20431;-84
2022/06/03 14:28:37;;;;;;;2.65;1.20;;;25.10;60.20;;;;;;5116642;27;20163;-83
2022/06/03 14:31:12;;;;;;;2.55;0.90;;;24.70;60.50;;;;;;5147460;27;20086;-82
2022/06/03 14:33:45;;;;;;;14.43;1.85;;;24.60;61.10;;;;;;5136609;27;20042;-82
2022/06/03 14:36:18;;;;;;;2.03;0.90;;;24.60;60.30;;;;;;5155028;27;20047;-83
2022/06/03 14:38:49;;;;;;;3.58;0.80;;;24.70;60.40;;;;;;5137059;27;20099;-83
2022/06/03 14:41:21;;;;;;;4.25;1.48;;;24.60;59.30;;;;;;5142985;27;20133;-83
2022/06/03 14:43:48;;;;;;;3.63;1.33;;;24.40;59.90;;;;;;5170862;27;20064;-84
2022/06/03 14:46:19;;;;;;;3.35;0.98;;;24.10;59.60;;;;;;5152208;27;20053;-80
2022/06/03 14:48:49;;;;;;;2.20;0.90;;;23.90;60.00;;;;;;5146413;27;20093;-85
2022/06/03 14:51:27;;;;;;;4.47;1.10;;;23.80;60.00;;;;;;5135991;27;20054;-82
2022/06/03 14:53:58;;;;;;;5.78;1.40;;;23.60;59.90;;;;;;5135894;27;20046;-80
2022/06/03 14:56:39;;;;;;;2.90;1.00;;;23.40;60.90;;;;;;5136648;27;20069;-84
2022/06/03 14:59:10;;;;;;;2.53;0.82;;;23.20;60.00;;;;;;5153677;27;20054;-82
2022/06/03 15:02:27;;;;;;;3.78;1.10;;;22.90;60.00;;;;;;5155273;27;20055;-82
2022/06/03 15:05:18;;;;;;;6.82;1.25;;;22.90;62.10;;;;;;5052008;28;20048;-82
2022/06/03 15:07:50;;;;;;;1.50;0.90;;;22.20;60.90;;;;;;5054436;28;20060;-81
2022/06/03 15:10:22;;;;;;;2.17;0.90;;;22.60;61.40;;;;;;5130447;27;20051;-81
2022/06/03 15:12:57;;;;;;;2.58;1.17;;;22.40;61.90;;;;;;5121949;27;20506;-83
2022/06/03 15:15:27;;;;;;;3.55;1.02;;;22.20;61.40;;;;;;5133052;27;20051;-81
2022/06/03 15:17:54;;;;;;;3.25;1.65;;;21.90;61.50;;;;;;5138736;27;20061;-81
2022/06/03 15:20:22;;;;;;;2.58;0.90;;;22.00;62.00;;;;;;5122431;28;20051;-84
2022/06/03 15:22:52;;;;;;;3.97;0.90;;;21.90;61.80;;;;;;5144989;27;20043;-80
2022/06/03 15:25:28;;;;;;;2.30;1.30;;;21.90;61.80;;;;;;5116022;28;20070;-80
2022/06/03 15:28:00;;;;;;;4.20;1.58;;;21.90;63.40;;;;;;5130626;27;20051;-81